createdAt,value
2022-12-13T00:00:52.478Z,0.00
2022-12-13T00:01:55.597Z,0.00
2022-12-13T00:02:55.469Z,0.00
2022-12-13T00:03:52.517Z,0.00
2022-12-13T00:04:52.427Z,0.00
2022-12-13T00:05:52.408Z,0.00
2022-12-13T00:06:52.398Z,0.00
2022-12-13T00:07:52.453Z,0.00
2022-12-13T00:08:52.425Z,0.00
2022-12-13T00:09:52.358Z,0.00
2022-12-13T00:10:52.348Z,0.00
2022-12-13T00:11:52.359Z,0.00
2022-12-13T00:12:52.322Z,0.00
2022-12-13T00:13:52.308Z,0.00
2022-12-13T00:14:52.339Z,0.00
2022-12-13T00:15:52.277Z,0.00
2022-12-13T00:16:52.327Z,0.00
2022-12-13T00:17:52.318Z,0.00
2022-12-13T00:18:52.238Z,0.00
2022-12-13T00:19:52.218Z,0.00
2022-12-13T00:20:52.270Z,0.00
2022-12-13T00:21:55.200Z,0.00
2022-12-13T00:22:55.224Z,0.00
2022-12-13T00:23:52.169Z,0.00
2022-12-13T00:24:52.170Z,0.00
2022-12-13T00:25:52.149Z,0.00
2022-12-13T00:26:52.150Z,0.00
2022-12-13T00:27:52.120Z,0.00
2022-12-13T00:28:52.119Z,0.00
2022-12-13T00:29:52.107Z,0.00
2022-12-13T00:30:52.151Z,0.00
2022-12-13T00:31:59.459Z,0.00
2022-12-13T00:32:53.067Z,0.00
2022-12-13T00:33:52.058Z,0.00
2022-12-13T00:34:52.049Z,0.00
2022-12-13T00:35:52.073Z,0.00
2022-12-13T00:36:52.010Z,0.00
2022-12-13T00:37:51.990Z,0.00
2022-12-13T00:38:51.989Z,0.00
2022-12-13T00:39:52.071Z,0.00
2022-12-13T00:40:51.960Z,0.00
2022-12-13T00:41:55.010Z,0.00
2022-12-13T00:42:54.951Z,0.00
2022-12-13T00:43:51.912Z,0.00
2022-12-13T00:44:51.910Z,0.00
2022-12-13T00:45:51.917Z,0.00
2022-12-13T00:46:51.951Z,0.00
2022-12-13T00:47:51.911Z,0.00
2022-12-13T00:48:51.856Z,0.00
2022-12-13T00:49:51.841Z,0.00
2022-12-13T00:50:51.830Z,0.00
2022-12-13T00:51:51.824Z,0.00
2022-12-13T00:52:51.800Z,0.00
2022-12-13T00:53:51.819Z,0.00
2022-12-13T00:54:51.820Z,0.00
2022-12-13T00:55:51.761Z,0.00
2022-12-13T00:56:51.753Z,0.00
2022-12-13T00:57:51.728Z,0.00
2022-12-13T00:58:52.494Z,0.00
2022-12-13T00:59:51.720Z,0.00
2022-12-13T01:00:51.731Z,0.00
2022-12-13T01:01:54.740Z,0.00
2022-12-13T01:02:54.739Z,0.00
2022-12-13T01:03:51.658Z,0.00
2022-12-13T01:04:51.633Z,0.00
2022-12-13T01:06:14.167Z,0.00
2022-12-13T01:06:52.622Z,0.00
2022-12-13T01:07:51.634Z,0.00
2022-12-13T01:08:51.611Z,0.00
2022-12-13T01:09:51.579Z,0.00
2022-12-13T01:10:51.571Z,0.00
2022-12-13T01:11:51.583Z,0.00
2022-12-13T01:12:51.570Z,0.00
2022-12-13T01:13:51.524Z,0.00
2022-12-13T01:14:55.953Z,0.00
2022-12-13T01:15:51.493Z,0.00
2022-12-13T01:16:51.722Z,0.00
2022-12-13T01:17:51.502Z,0.00
2022-12-13T01:18:51.463Z,0.00
2022-12-13T01:19:51.449Z,0.00
2022-12-13T01:20:51.433Z,0.00
2022-12-13T01:21:54.442Z,0.00
2022-12-13T01:22:54.432Z,0.00
2022-12-13T01:23:51.392Z,0.00
2022-12-13T01:24:51.393Z,0.00
2022-12-13T01:25:51.432Z,0.00
2022-12-13T01:26:51.363Z,0.00
2022-12-13T01:27:52.343Z,0.00
2022-12-13T01:28:51.343Z,0.00
2022-12-13T01:29:51.314Z,0.00
2022-12-13T01:30:51.338Z,0.00
2022-12-13T01:31:51.324Z,0.00
2022-12-13T01:32:51.283Z,0.00
2022-12-13T01:33:51.267Z,0.00
2022-12-13T01:34:51.263Z,0.00
2022-12-13T01:35:51.235Z,0.00
2022-12-13T01:36:51.295Z,0.00
2022-12-13T01:37:52.215Z,0.00
2022-12-13T01:38:52.203Z,0.00
2022-12-13T01:39:52.194Z,0.00
2022-12-13T01:40:52.173Z,0.00
2022-12-13T01:41:55.194Z,0.00
2022-12-13T01:42:54.164Z,0.00
2022-12-13T01:43:51.145Z,0.00
2022-12-13T01:44:51.124Z,0.00
2022-12-13T01:45:51.143Z,0.00
2022-12-13T01:46:51.145Z,0.00
2022-12-13T01:47:51.078Z,0.00
2022-12-13T01:48:51.084Z,0.00
2022-12-13T01:49:51.056Z,0.00
2022-12-13T01:50:51.050Z,0.00
2022-12-13T01:51:51.027Z,0.00
2022-12-13T01:52:51.073Z,0.00
2022-12-13T01:53:51.017Z,0.00
2022-12-13T01:54:51.003Z,0.00
2022-12-13T01:55:50.977Z,0.00
2022-12-13T01:56:50.976Z,0.00
2022-12-13T01:57:50.947Z,0.00
2022-12-13T01:58:50.988Z,0.00
2022-12-13T01:59:50.926Z,0.00
2022-12-13T02:00:50.918Z,0.00
2022-12-13T02:01:53.897Z,0.00
2022-12-13T02:02:54.908Z,0.00
2022-12-13T02:03:50.887Z,0.00
2022-12-13T02:04:51.066Z,0.00
2022-12-13T02:05:50.856Z,0.00
2022-12-13T02:06:50.826Z,0.00
2022-12-13T02:07:50.859Z,0.00
2022-12-13T02:08:50.806Z,0.00
2022-12-13T02:09:56.377Z,0.00
2022-12-13T02:10:51.826Z,0.00
2022-12-13T02:11:50.781Z,0.00
2022-12-13T02:12:50.765Z,0.00
2022-12-13T02:13:50.738Z,0.00
2022-12-13T02:14:50.738Z,0.00
2022-12-13T02:15:50.784Z,0.00
2022-12-13T02:16:50.707Z,0.00
2022-12-13T02:17:50.702Z,0.00
2022-12-13T02:18:50.689Z,0.00
2022-12-13T02:19:50.678Z,0.00
2022-12-13T02:20:50.666Z,0.00
2022-12-13T02:21:53.678Z,0.00
2022-12-13T02:22:53.640Z,0.00
2022-12-13T02:23:50.617Z,0.00
2022-12-13T02:24:50.600Z,0.00
2022-12-13T02:25:50.599Z,0.00
2022-12-13T02:26:50.666Z,0.00
2022-12-13T02:27:50.611Z,0.00
2022-12-13T02:28:50.555Z,0.00
2022-12-13T02:29:50.569Z,0.00
2022-12-13T02:30:50.565Z,0.00
2022-12-13T02:31:50.571Z,0.00
2022-12-13T02:32:50.498Z,0.00
2022-12-13T02:33:50.505Z,0.00
2022-12-13T02:34:50.481Z,0.00
2022-12-13T02:35:53.021Z,0.00
2022-12-13T02:36:50.447Z,0.00
2022-12-13T02:37:50.499Z,0.00
2022-12-13T02:38:50.427Z,0.00
2022-12-13T02:39:50.418Z,0.00
2022-12-13T02:40:50.399Z,0.00
2022-12-13T02:41:53.393Z,0.00
2022-12-13T02:42:53.429Z,0.00
2022-12-13T02:43:50.360Z,0.00
2022-12-13T02:44:50.349Z,0.00
2022-12-13T02:45:50.348Z,0.00
2022-12-13T02:46:50.319Z,0.00
2022-12-13T02:47:50.319Z,0.00
2022-12-13T02:48:50.339Z,0.00
2022-12-13T02:49:50.289Z,0.00
2022-12-13T02:50:50.269Z,0.00
2022-12-13T02:51:50.267Z,0.00
2022-12-13T02:52:50.249Z,0.00
2022-12-13T02:53:50.239Z,0.00
2022-12-13T02:54:50.271Z,0.00
2022-12-13T02:55:50.219Z,0.00
2022-12-13T02:56:50.186Z,0.00
2022-12-13T02:57:50.200Z,0.00
2022-12-13T02:58:50.185Z,0.00
2022-12-13T02:59:52.555Z,0.00
2022-12-13T03:00:50.200Z,0.00
2022-12-13T03:01:53.209Z,0.00
2022-12-13T03:02:54.273Z,0.00
2022-12-13T03:03:50.157Z,0.00
2022-12-13T03:04:50.099Z,0.00
2022-12-13T03:05:50.101Z,0.00
2022-12-13T03:06:50.231Z,0.00
2022-12-13T03:07:50.101Z,0.00
2022-12-13T03:08:50.040Z,0.00
2022-12-13T03:09:50.023Z,0.00
2022-12-13T03:10:50.020Z,0.00
2022-12-13T03:11:50.004Z,0.00
2022-12-13T03:12:50.023Z,0.00
2022-12-13T03:13:49.991Z,0.00
2022-12-13T03:14:49.970Z,0.00
2022-12-13T03:15:50.008Z,0.00
2022-12-13T03:16:50.102Z,0.00
2022-12-13T03:17:49.932Z,0.00
2022-12-13T03:18:49.902Z,0.00
2022-12-13T03:19:49.892Z,0.00
2022-12-13T03:20:49.881Z,0.00
2022-12-13T03:21:52.912Z,0.00
2022-12-13T03:22:52.872Z,0.00
2022-12-13T03:23:50.570Z,0.00
2022-12-13T03:24:49.841Z,0.00
2022-12-13T03:25:49.831Z,0.00
2022-12-13T03:26:49.825Z,0.00
2022-12-13T03:27:49.846Z,0.00
2022-12-13T03:28:49.794Z,0.00
2022-12-13T03:29:49.782Z,0.00
2022-12-13T03:30:49.763Z,0.00
2022-12-13T03:31:49.754Z,0.00
2022-12-13T03:32:49.912Z,0.00
2022-12-13T03:33:49.725Z,0.00
2022-12-13T03:35:00.442Z,0.00
2022-12-13T03:35:50.704Z,0.00
2022-12-13T03:36:49.683Z,0.00
2022-12-13T03:37:49.676Z,0.00
2022-12-13T03:38:49.717Z,0.00
2022-12-13T03:39:49.644Z,0.00
2022-12-13T03:40:49.624Z,0.00
2022-12-13T03:41:52.624Z,0.00
2022-12-13T03:42:52.620Z,0.00
2022-12-13T03:43:49.593Z,0.00
2022-12-13T03:44:49.616Z,0.00
2022-12-13T03:45:49.586Z,0.00
2022-12-13T03:46:49.582Z,0.00
2022-12-13T03:47:49.534Z,0.00
2022-12-13T03:48:49.533Z,0.00
2022-12-13T03:49:54.028Z,0.00
2022-12-13T03:50:49.503Z,0.00
2022-12-13T03:51:49.494Z,0.00
2022-12-13T03:52:49.475Z,0.00
2022-12-13T03:53:49.464Z,0.00
2022-12-13T03:54:49.454Z,0.00
2022-12-13T03:55:49.508Z,0.00
2022-12-13T03:56:49.423Z,0.00
2022-12-13T03:57:49.414Z,0.00
2022-12-13T03:58:49.383Z,0.00
2022-12-13T03:59:49.393Z,0.00
2022-12-13T04:00:49.368Z,0.00
2022-12-13T04:01:52.436Z,0.00
2022-12-13T04:02:52.454Z,0.00
2022-12-13T04:03:49.327Z,0.00
2022-12-13T04:04:49.315Z,0.00
2022-12-13T04:05:49.304Z,0.00
2022-12-13T04:06:49.344Z,0.00
2022-12-13T04:07:49.281Z,0.00
2022-12-13T04:08:51.044Z,0.00
2022-12-13T04:09:49.276Z,0.00
2022-12-13T04:10:49.244Z,0.00
2022-12-13T04:11:49.225Z,0.00
2022-12-13T04:12:49.285Z,0.00
2022-12-13T04:13:49.205Z,0.00
2022-12-13T04:14:49.194Z,0.00
2022-12-13T04:15:49.307Z,0.00
2022-12-13T04:16:49.168Z,0.00
2022-12-13T04:17:51.225Z,0.00
2022-12-13T04:18:49.193Z,0.00
2022-12-13T04:19:49.134Z,0.00
2022-12-13T04:20:49.099Z,0.00
2022-12-13T04:21:52.097Z,0.00
2022-12-13T04:22:52.097Z,0.00
2022-12-13T04:23:49.065Z,0.00
2022-12-13T04:24:49.087Z,0.00
2022-12-13T04:25:49.046Z,0.00
2022-12-13T04:26:49.036Z,0.00
2022-12-13T04:27:49.025Z,0.00
2022-12-13T04:28:54.313Z,0.00
2022-12-13T04:29:50.037Z,0.00
2022-12-13T04:30:53.072Z,0.00
2022-12-13T04:31:50.060Z,0.00
2022-12-13T04:32:48.945Z,0.00
2022-12-13T04:33:48.936Z,0.00
2022-12-13T04:34:48.929Z,0.00
2022-12-13T04:35:48.953Z,0.00
2022-12-13T04:36:48.896Z,0.00
2022-12-13T04:37:48.886Z,0.00
2022-12-13T04:38:48.905Z,0.00
2022-12-13T04:39:48.865Z,0.00
2022-12-13T04:40:48.846Z,0.00
2022-12-13T04:41:51.866Z,0.00
2022-12-13T04:42:53.984Z,0.00
2022-12-13T04:43:48.816Z,0.00
2022-12-13T04:44:48.798Z,0.00
2022-12-13T04:45:48.827Z,0.00
2022-12-13T04:46:48.797Z,0.00
2022-12-13T04:47:48.757Z,0.00
2022-12-13T04:48:48.766Z,0.00
2022-12-13T04:49:48.737Z,0.00
2022-12-13T04:50:48.720Z,0.00
2022-12-13T04:51:48.698Z,0.00
2022-12-13T04:52:48.707Z,0.00
2022-12-13T04:53:48.708Z,0.00
2022-12-13T04:54:48.668Z,0.00
2022-12-13T04:55:49.658Z,0.00
2022-12-13T04:56:48.639Z,0.00
2022-12-13T04:57:48.627Z,0.00
2022-12-13T04:58:48.772Z,0.00
2022-12-13T04:59:48.604Z,0.00
2022-12-13T05:00:48.614Z,0.00
2022-12-13T05:01:51.669Z,0.00
2022-12-13T05:02:51.652Z,0.00
2022-12-13T05:03:48.564Z,0.00
2022-12-13T05:04:48.559Z,0.00
2022-12-13T05:05:49.523Z,0.00
2022-12-13T05:06:48.510Z,0.00
2022-12-13T05:07:48.579Z,0.00
2022-12-13T05:08:48.479Z,0.00
2022-12-13T05:09:48.502Z,0.00
2022-12-13T05:10:48.452Z,0.00
2022-12-13T05:11:48.440Z,0.00
2022-12-13T05:12:48.420Z,0.00
2022-12-13T05:13:48.420Z,0.00
2022-12-13T05:14:48.426Z,0.00
2022-12-13T05:15:53.586Z,0.00
2022-12-13T05:16:49.547Z,0.00
2022-12-13T05:17:48.401Z,0.00
2022-12-13T05:18:48.358Z,0.00
2022-12-13T05:19:48.387Z,0.00
2022-12-13T05:20:48.420Z,0.00
2022-12-13T05:21:51.370Z,0.00
2022-12-13T05:22:51.378Z,0.00
2022-12-13T05:23:48.329Z,0.00
2022-12-13T05:24:48.363Z,0.00
2022-12-13T05:25:48.317Z,0.00
2022-12-13T05:26:48.286Z,0.00
2022-12-13T05:27:48.280Z,0.00
2022-12-13T05:28:48.289Z,0.00
2022-12-13T05:29:48.244Z,0.00
2022-12-13T05:30:48.262Z,0.00
2022-12-13T05:31:48.282Z,0.00
2022-12-13T05:32:48.220Z,0.00
2022-12-13T05:33:48.262Z,0.00
2022-12-13T05:34:48.211Z,0.00
2022-12-13T05:35:48.201Z,0.00
2022-12-13T05:36:48.210Z,0.00
2022-12-13T05:37:48.150Z,0.00
2022-12-13T05:38:49.139Z,0.00
2022-12-13T05:39:48.123Z,0.00
2022-12-13T05:40:48.099Z,0.00
2022-12-13T05:41:51.091Z,0.00
2022-12-13T05:42:51.129Z,0.00
2022-12-13T05:43:48.091Z,0.00
2022-12-13T05:44:48.051Z,0.00
2022-12-13T05:45:48.048Z,0.00
2022-12-13T05:46:48.101Z,0.00
2022-12-13T05:47:48.037Z,0.00
2022-12-13T05:48:47.972Z,0.00
2022-12-13T05:49:48.020Z,0.00
2022-12-13T05:50:47.981Z,0.00
2022-12-13T05:51:48.052Z,0.00
2022-12-13T05:52:47.972Z,0.00
2022-12-13T05:53:53.133Z,0.00
2022-12-13T05:54:48.951Z,0.00
2022-12-13T05:55:47.931Z,0.00
2022-12-13T05:56:47.921Z,0.00
2022-12-13T05:57:50.281Z,0.00
2022-12-13T05:58:47.840Z,0.00
2022-12-13T05:59:48.860Z,0.00
2022-12-13T06:00:47.852Z,0.00
2022-12-13T06:01:50.862Z,0.00
2022-12-13T06:02:50.967Z,0.00
2022-12-13T06:03:47.894Z,0.00
2022-12-13T06:04:47.821Z,0.00
2022-12-13T06:05:47.792Z,0.00
2022-12-13T06:06:47.733Z,0.00
2022-12-13T06:07:49.964Z,0.00
2022-12-13T06:08:48.911Z,0.00
2022-12-13T06:09:47.732Z,0.00
2022-12-13T06:10:47.723Z,0.00
2022-12-13T06:11:47.711Z,0.00
2022-12-13T06:12:47.715Z,0.00
2022-12-13T06:13:47.653Z,0.00
2022-12-13T06:14:47.663Z,0.00
2022-12-13T06:15:47.654Z,0.00
2022-12-13T06:16:47.757Z,0.00
2022-12-13T06:17:47.631Z,0.00
2022-12-13T06:18:47.636Z,0.00
2022-12-13T06:19:47.663Z,0.00
2022-12-13T06:20:47.593Z,0.00
2022-12-13T06:21:50.623Z,0.00
2022-12-13T06:22:50.584Z,0.00
2022-12-13T06:23:47.524Z,0.00
2022-12-13T06:24:47.532Z,0.00
2022-12-13T06:25:51.637Z,0.00
2022-12-13T06:26:47.492Z,0.00
2022-12-13T06:27:47.516Z,0.00
2022-12-13T06:28:47.512Z,0.00
2022-12-13T06:29:47.487Z,0.00
2022-12-13T06:30:47.477Z,0.00
2022-12-13T06:31:47.597Z,0.00
2022-12-13T06:32:47.414Z,0.00
2022-12-13T06:33:47.423Z,0.00
2022-12-13T06:34:47.421Z,0.00
2022-12-13T06:35:47.396Z,0.00
2022-12-13T06:36:47.395Z,0.00
2022-12-13T06:37:47.454Z,0.00
2022-12-13T06:38:47.406Z,0.00
2022-12-13T06:39:47.316Z,0.00
2022-12-13T06:40:47.376Z,0.00
2022-12-13T06:41:50.354Z,0.00
2022-12-13T06:42:50.358Z,0.00
2022-12-13T06:43:47.264Z,0.00
2022-12-13T06:44:47.257Z,0.00
2022-12-13T06:45:47.349Z,0.00
2022-12-13T06:46:47.254Z,0.00
2022-12-13T06:47:47.242Z,0.00
2022-12-13T06:48:47.246Z,0.00
2022-12-13T06:49:47.351Z,0.00
2022-12-13T06:50:47.253Z,0.00
2022-12-13T06:51:47.231Z,0.00
2022-12-13T06:52:47.218Z,0.00
2022-12-13T06:53:47.235Z,0.00
2022-12-13T06:54:47.205Z,0.00
2022-12-13T06:55:47.115Z,0.00
2022-12-13T06:56:47.126Z,0.00
2022-12-13T06:57:47.126Z,4.00
2022-12-13T06:58:47.114Z,0.00
2022-12-13T06:59:47.129Z,0.00
2022-12-13T07:00:48.839Z,0.00
2022-12-13T07:01:50.720Z,4.00
2022-12-13T07:02:50.176Z,0.00
2022-12-13T07:03:47.008Z,4.00
2022-12-13T07:04:47.205Z,0.00
2022-12-13T07:05:47.027Z,4.00
2022-12-13T07:06:46.996Z,4.00
2022-12-13T07:07:46.980Z,4.00
2022-12-13T07:08:46.967Z,4.00
2022-12-13T07:09:46.948Z,4.00
2022-12-13T07:10:46.978Z,8.00
2022-12-13T07:11:51.713Z,8.00
2022-12-13T07:12:47.918Z,8.00
2022-12-13T07:13:46.897Z,12.00
2022-12-13T07:14:46.916Z,8.00
2022-12-13T07:15:46.858Z,12.00
2022-12-13T07:16:46.864Z,12.00
2022-12-13T07:17:46.887Z,16.00
2022-12-13T07:18:46.807Z,16.00
2022-12-13T07:19:47.278Z,16.00
2022-12-13T07:20:46.778Z,16.00
2022-12-13T07:21:49.759Z,24.00
2022-12-13T07:22:55.108Z,24.00
2022-12-13T07:23:47.783Z,24.00
2022-12-13T07:24:47.819Z,32.00
2022-12-13T07:25:46.764Z,28.00
2022-12-13T07:26:46.750Z,32.00
2022-12-13T07:27:46.775Z,40.00
2022-12-13T07:28:50.157Z,40.00
2022-12-13T07:29:47.713Z,40.00
2022-12-13T07:30:46.779Z,48.00
2022-12-13T07:31:46.680Z,52.00
2022-12-13T07:32:46.697Z,56.00
2022-12-13T07:33:46.691Z,60.00
2022-12-13T07:34:46.647Z,64.00
2022-12-13T07:35:46.699Z,68.00
2022-12-13T07:36:47.654Z,72.00
2022-12-13T07:37:46.628Z,76.00
2022-12-13T07:38:46.629Z,84.00
2022-12-13T07:39:46.633Z,88.00
2022-12-13T07:40:46.579Z,96.00
2022-12-13T07:41:49.709Z,104.00
2022-12-13T07:42:49.571Z,108.00
2022-12-13T07:43:46.561Z,112.00
2022-12-13T07:44:46.559Z,116.00
2022-12-13T07:45:46.573Z,128.00
2022-12-13T07:46:46.523Z,136.00
2022-12-13T07:47:46.640Z,148.00
2022-12-13T07:48:46.456Z,152.00
2022-12-13T07:49:46.460Z,156.00
2022-12-13T07:50:46.426Z,168.00
2022-12-13T07:51:47.442Z,172.00
2022-12-13T07:52:46.464Z,180.00
2022-12-13T07:53:46.452Z,184.00
2022-12-13T07:54:46.355Z,192.00
2022-12-13T07:55:46.360Z,200.00
2022-12-13T07:56:46.380Z,208.00
2022-12-13T07:57:46.341Z,220.00
2022-12-13T07:58:46.317Z,232.00
2022-12-13T07:59:46.300Z,232.00
2022-12-13T08:00:46.868Z,232.00
2022-12-13T08:01:49.317Z,224.00
2022-12-13T08:02:49.251Z,216.00
2022-12-13T08:03:46.191Z,212.00
2022-12-13T08:04:46.327Z,216.00
2022-12-13T08:05:47.236Z,220.00
2022-12-13T08:06:46.190Z,224.00
2022-12-13T08:07:46.154Z,232.00
2022-12-13T08:08:46.168Z,236.00
2022-12-13T08:09:52.472Z,244.00
2022-12-13T08:10:47.141Z,256.00
2022-12-13T08:11:46.128Z,268.00
2022-12-13T08:12:46.163Z,276.00
2022-12-13T08:13:46.091Z,292.00
2022-12-13T08:14:46.097Z,300.00
2022-12-13T08:15:47.121Z,316.00
2022-12-13T08:16:46.069Z,324.00
2022-12-13T08:17:46.013Z,336.00
2022-12-13T08:18:46.152Z,352.00
2022-12-13T08:19:46.022Z,360.00
2022-12-13T08:20:45.983Z,372.00
2022-12-13T08:21:58.261Z,384.00
2022-12-13T08:22:50.033Z,408.00
2022-12-13T08:23:45.931Z,432.00
2022-12-13T08:24:46.057Z,448.00
2022-12-13T08:25:45.932Z,448.00
2022-12-13T08:26:45.944Z,464.00
2022-12-13T08:27:45.873Z,472.00
2022-12-13T08:28:45.865Z,480.00
2022-12-13T08:29:46.015Z,488.00
2022-12-13T08:30:45.969Z,496.00
2022-12-13T08:31:45.872Z,468.00
2022-12-13T08:32:45.850Z,476.00
2022-12-13T08:33:45.824Z,464.00
2022-12-13T08:34:45.827Z,484.00
2022-12-13T08:35:45.790Z,488.00
2022-12-13T08:36:45.814Z,508.00
2022-12-13T08:37:45.773Z,500.00
2022-12-13T08:38:45.767Z,488.00
2022-12-13T08:39:45.723Z,492.00
2022-12-13T08:40:45.763Z,508.00
2022-12-13T08:41:48.706Z,532.00
2022-12-13T08:42:48.765Z,552.00
2022-12-13T08:43:45.791Z,568.00
2022-12-13T08:44:45.732Z,576.00
2022-12-13T08:45:45.658Z,596.00
2022-12-13T08:46:45.687Z,596.00
2022-12-13T08:47:45.627Z,612.00
2022-12-13T08:48:45.814Z,604.00
2022-12-13T08:49:45.603Z,580.00
2022-12-13T08:50:45.594Z,588.00
2022-12-13T08:51:45.577Z,600.00
2022-12-13T08:52:45.584Z,596.00
2022-12-13T08:53:45.584Z,592.00
2022-12-13T08:54:45.533Z,600.00
2022-12-13T08:55:48.254Z,600.00
2022-12-13T08:56:45.515Z,600.00
2022-12-13T08:57:45.475Z,608.00
2022-12-13T08:58:45.465Z,612.00
2022-12-13T08:59:45.445Z,632.00
2022-12-13T09:00:45.536Z,640.00
2022-12-13T09:01:48.440Z,648.00
2022-12-13T09:02:49.496Z,648.00
2022-12-13T09:03:45.396Z,656.00
2022-12-13T09:04:45.385Z,684.00
2022-12-13T09:05:45.366Z,716.00
2022-12-13T09:06:45.406Z,664.00
2022-12-13T09:07:45.414Z,664.00
2022-12-13T09:08:45.364Z,676.00
2022-12-13T09:09:46.338Z,660.00
2022-12-13T09:10:46.315Z,664.00
2022-12-13T09:11:45.297Z,672.00
2022-12-13T09:12:45.277Z,684.00
2022-12-13T09:13:45.299Z,700.00
2022-12-13T09:14:46.091Z,736.00
2022-12-13T09:15:46.307Z,764.00
2022-12-13T09:16:51.017Z,788.00
2022-12-13T09:17:46.312Z,784.00
2022-12-13T09:18:46.197Z,816.00
2022-12-13T09:19:46.270Z,860.00
2022-12-13T09:20:45.237Z,944.00
2022-12-13T09:21:48.168Z,960.00
2022-12-13T09:22:48.188Z,936.00
2022-12-13T09:23:46.063Z,952.00
2022-12-13T09:24:52.679Z,932.00
2022-12-13T09:25:51.454Z,900.00
2022-12-13T09:26:46.081Z,908.00
2022-12-13T09:27:45.071Z,940.00
2022-12-13T09:28:45.069Z,1040.00
2022-12-13T09:29:45.047Z,1236.00
2022-12-13T09:30:45.065Z,1388.00
2022-12-13T09:31:51.011Z,1516.00
2022-12-13T09:32:46.041Z,1588.00
2022-12-13T09:33:45.020Z,1608.00
2022-12-13T09:34:46.092Z,1520.00
2022-12-13T09:35:44.969Z,1388.00
2022-12-13T09:36:44.960Z,1184.00
2022-12-13T09:37:46.232Z,1112.00
2022-12-13T09:38:45.029Z,1100.00
2022-12-13T09:39:44.919Z,1192.00
2022-12-13T09:40:44.912Z,1284.00
2022-12-13T09:41:47.891Z,1324.00
2022-12-13T09:42:47.893Z,1372.00
2022-12-13T09:43:45.457Z,1396.00
2022-12-13T09:44:49.433Z,1348.00
2022-12-13T09:45:45.894Z,1308.00
2022-12-13T09:46:45.534Z,1284.00
2022-12-13T09:47:46.899Z,1308.00
2022-12-13T09:48:48.332Z,1396.00
2022-12-13T09:49:52.124Z,1508.00
2022-12-13T09:50:57.960Z,1492.00
2022-12-13T09:51:49.897Z,1404.00
2022-12-13T09:52:45.772Z,1336.00
2022-12-13T09:53:44.752Z,1356.00
2022-12-13T09:54:48.873Z,1384.00
2022-12-13T09:55:44.703Z,1372.00
2022-12-13T09:56:44.721Z,1368.00
2022-12-13T09:57:44.681Z,1256.00
2022-12-13T09:58:44.677Z,1308.00
2022-12-13T09:59:44.684Z,1340.00
2022-12-13T10:00:44.670Z,1332.00
2022-12-13T10:01:47.666Z,1344.00
2022-12-13T10:02:47.633Z,1380.00
2022-12-13T10:03:44.656Z,1340.00
2022-12-13T10:04:44.583Z,1324.00
2022-12-13T10:05:44.573Z,1312.00
2022-12-13T10:06:44.623Z,1368.00
2022-12-13T10:07:44.546Z,1440.00
2022-12-13T10:08:44.536Z,1380.00
2022-12-13T10:09:44.524Z,1344.00
2022-12-13T10:10:44.528Z,1468.00
2022-12-13T10:11:50.243Z,1452.00
2022-12-13T10:12:45.535Z,1500.00
2022-12-13T10:13:44.472Z,1560.00
2022-12-13T10:14:44.457Z,1624.00
2022-12-13T10:15:44.435Z,1864.00
2022-12-13T10:16:44.523Z,2084.00
2022-12-13T10:17:48.575Z,2076.00
2022-12-13T10:18:45.397Z,2048.00
2022-12-13T10:19:44.388Z,2000.00
2022-12-13T10:20:44.387Z,1964.00
2022-12-13T10:21:47.419Z,1932.00
2022-12-13T10:23:07.917Z,1852.00
2022-12-13T10:24:22.438Z,1720.00
2022-12-13T10:24:45.324Z,1740.00
2022-12-13T10:25:44.345Z,1856.00
2022-12-13T10:26:44.359Z,2196.00
2022-12-13T10:27:44.309Z,2428.00
2022-12-13T10:28:44.275Z,2356.00
2022-12-13T10:29:44.258Z,2240.00
2022-12-13T10:30:46.703Z,2244.00
2022-12-13T10:31:44.310Z,2264.00
2022-12-13T10:32:44.246Z,2312.00
2022-12-13T10:33:44.216Z,2164.00
2022-12-13T10:34:44.195Z,1976.00
2022-12-13T10:35:44.175Z,1932.00
2022-12-13T10:36:44.167Z,1932.00
2022-12-13T10:37:44.191Z,1864.00
2022-12-13T10:38:44.186Z,1796.00
2022-12-13T10:39:44.142Z,1856.00
2022-12-13T10:40:44.118Z,1656.00
2022-12-13T10:41:47.097Z,1552.00
2022-12-13T10:42:47.128Z,1588.00
2022-12-13T10:43:44.078Z,1500.00
2022-12-13T10:44:44.059Z,1564.00
2022-12-13T10:45:44.085Z,1556.00
2022-12-13T10:46:44.080Z,1416.00
2022-12-13T10:47:44.019Z,1320.00
2022-12-13T10:48:44.048Z,1220.00
2022-12-13T10:49:43.998Z,1188.00
2022-12-13T10:50:44.062Z,1204.00
2022-12-13T10:51:43.969Z,1308.00
2022-12-13T10:52:44.010Z,1428.00
2022-12-13T10:53:47.692Z,1676.00
2022-12-13T10:54:48.204Z,1816.00
2022-12-13T10:55:43.911Z,1936.00
2022-12-13T10:56:43.899Z,2204.00
2022-12-13T10:57:43.903Z,2160.00
2022-12-13T10:58:43.920Z,2568.00
2022-12-13T10:59:43.873Z,2784.00
2022-12-13T11:00:43.848Z,2680.00
2022-12-13T11:01:46.829Z,2528.00
2022-12-13T11:02:46.829Z,2508.00
2022-12-13T11:03:43.808Z,2288.00
2022-12-13T11:04:43.939Z,2456.00
2022-12-13T11:05:43.780Z,2464.00
2022-12-13T11:06:44.005Z,2292.00
2022-12-13T11:07:43.757Z,2016.00
2022-12-13T11:08:43.783Z,1812.00
2022-12-13T11:09:43.726Z,1700.00
2022-12-13T11:10:44.772Z,1620.00
2022-12-13T11:11:43.699Z,1552.00
2022-12-13T11:12:43.681Z,1492.00
2022-12-13T11:13:43.680Z,1392.00
2022-12-13T11:14:43.755Z,1388.00
2022-12-13T11:15:43.652Z,1368.00
2022-12-13T11:16:43.744Z,1292.00
2022-12-13T11:17:43.639Z,1248.00
2022-12-13T11:18:43.662Z,1208.00
2022-12-13T11:19:43.646Z,1220.00
2022-12-13T11:20:43.593Z,1308.00
2022-12-13T11:21:46.591Z,1360.00
2022-12-13T11:22:46.570Z,1324.00
2022-12-13T11:23:43.590Z,1288.00
2022-12-13T11:24:43.524Z,1240.00
2022-12-13T11:25:43.541Z,1208.00
2022-12-13T11:26:43.570Z,1200.00
2022-12-13T11:27:43.487Z,1196.00
2022-12-13T11:28:44.131Z,1228.00
2022-12-13T11:29:43.465Z,1268.00
2022-12-13T11:30:43.453Z,1312.00
2022-12-13T11:31:43.486Z,1328.00
2022-12-13T11:32:43.476Z,1356.00
2022-12-13T11:33:47.555Z,1384.00
2022-12-13T11:34:44.392Z,1412.00
2022-12-13T11:35:43.382Z,1444.00
2022-12-13T11:36:43.364Z,1524.00
2022-12-13T11:37:43.355Z,1680.00
2022-12-13T11:38:43.395Z,1768.00
2022-12-13T11:39:43.330Z,1748.00
2022-12-13T11:40:43.312Z,1668.00
2022-12-13T11:41:46.295Z,1628.00
2022-12-13T11:42:46.820Z,1604.00
2022-12-13T11:43:43.276Z,1604.00
2022-12-13T11:44:47.794Z,1644.00
2022-12-13T11:45:44.270Z,1612.00
2022-12-13T11:46:43.242Z,1684.00
2022-12-13T11:47:43.223Z,1680.00
2022-12-13T11:48:43.208Z,1620.00
2022-12-13T11:49:43.247Z,1548.00
2022-12-13T11:50:43.194Z,1524.00
2022-12-13T11:51:43.165Z,1548.00
2022-12-13T11:52:43.144Z,1716.00
2022-12-13T11:53:43.147Z,1700.00
2022-12-13T11:54:43.127Z,1744.00
2022-12-13T11:55:43.170Z,1816.00
2022-12-13T11:56:43.107Z,1752.00
2022-12-13T11:57:43.095Z,1576.00
2022-12-13T11:59:02.319Z,1516.00
2022-12-13T11:59:44.083Z,1416.00
2022-12-13T12:00:43.055Z,1372.00
2022-12-13T12:01:46.118Z,1380.00
2022-12-13T12:02:46.050Z,1416.00
2022-12-13T12:03:43.067Z,1436.00
2022-12-13T12:04:42.995Z,1500.00
2022-12-13T12:05:42.989Z,1488.00
2022-12-13T12:06:42.965Z,1460.00
2022-12-13T12:08:05.278Z,1412.00
2022-12-13T12:08:44.225Z,1408.00
2022-12-13T12:09:42.927Z,1436.00
2022-12-13T12:10:49.010Z,1404.00
2022-12-13T12:11:43.895Z,1360.00
2022-12-13T12:12:42.898Z,1300.00
2022-12-13T12:13:50.382Z,1248.00
2022-12-13T12:14:43.981Z,1192.00
2022-12-13T12:15:42.927Z,1200.00
2022-12-13T12:16:42.829Z,1200.00
2022-12-13T12:17:42.877Z,1192.00
2022-12-13T12:18:42.810Z,1136.00
2022-12-13T12:19:42.845Z,1156.00
2022-12-13T12:20:42.867Z,1192.00
2022-12-13T12:22:46.767Z,1204.00
2022-12-13T12:23:48.413Z,1236.00
2022-12-13T12:24:43.778Z,1224.00
2022-12-13T12:25:42.717Z,1120.00
2022-12-13T12:26:42.698Z,1140.00
2022-12-13T12:27:42.688Z,1128.00
2022-12-13T12:28:43.987Z,1036.00
2022-12-13T12:29:42.659Z,988.00
2022-12-13T12:30:42.787Z,964.00
2022-12-13T12:31:51.003Z,956.00
2022-12-13T12:32:43.629Z,940.00
2022-12-13T12:33:42.633Z,952.00
2022-12-13T12:34:42.587Z,904.00
2022-12-13T12:35:46.076Z,896.00
2022-12-13T12:36:42.619Z,880.00
2022-12-13T12:37:42.549Z,876.00
2022-12-13T12:38:42.563Z,884.00
2022-12-13T12:39:42.531Z,924.00
2022-12-13T12:41:46.528Z,968.00
2022-12-13T12:43:14.108Z,980.00
2022-12-13T12:43:43.470Z,960.00
2022-12-13T12:44:42.485Z,952.00
2022-12-13T12:45:58.125Z,968.00
2022-12-13T12:47:18.239Z,928.00
2022-12-13T12:48:42.776Z,908.00
2022-12-13T12:48:53.788Z,868.00
2022-12-13T12:49:43.567Z,812.00
2022-12-13T12:50:43.039Z,808.00
2022-12-13T12:51:42.372Z,800.00
2022-12-13T12:52:42.350Z,816.00